sensor_id;sensor_type;location;lat;lon;timestamp;P1;durP1;ratioP1;P2;durP2;ratioP2
39956;SDS011;48483;44.640;7.494;2022-12-28T00:00:53;12.55;;;9.60;;
39956;SDS011;48483;44.640;7.494;2022-12-28T00:03:21;12.25;;;9.23;;
39956;SDS011;48483;44.640;7.494;2022-12-28T00:05:48;9.95;;;8.10;;
39956;SDS011;48483;44.640;7.494;2022-12-28T00:08:14;9.43;;;7.07;;
39956;SDS011;48483;44.640;7.494;2022-12-28T00:10:41;7.88;;;6.55;;
39956;SDS011;48483;44.640;7.494;2022-12-28T00:13:07;9.27;;;5.97;;
39956;SDS011;48483;44.640;7.494;2022-12-28T00:15:35;8.70;;;6.22;;
39956;SDS011;48483;44.640;7.494;2022-12-28T00:18:03;7.80;;;4.93;;
39956;SDS011;48483;44.640;7.494;2022-12-28T00:20:31;7.70;;;4.97;;
39956;SDS011;48483;44.640;7.494;2022-12-28T00:22:57;7.47;;;4.65;;
39956;SDS011;48483;44.640;7.494;2022-12-28T00:25:24;7.50;;;5.35;;
39956;SDS011;48483;44.640;7.494;2022-12-28T00:27:50;8.85;;;6.05;;
39956;SDS011;48483;44.640;7.494;2022-12-28T00:30:17;8.90;;;6.40;;
39956;SDS011;48483;44.640;7.494;2022-12-28T00:32:43;8.32;;;6.60;;
39956;SDS011;48483;44.640;7.494;2022-12-28T00:35:11;9.07;;;7.13;;
39956;SDS011;48483;44.640;7.494;2022-12-28T00:37:39;11.27;;;7.85;;
39956;SDS011;48483;44.640;7.494;2022-12-28T00:40:07;11.90;;;8.25;;
39956;SDS011;48483;44.640;7.494;2022-12-28T00:42:34;11.30;;;8.70;;
39956;SDS011;48483;44.640;7.494;2022-12-28T00:45:02;13.57;;;9.98;;
39956;SDS011;48483;44.640;7.494;2022-12-28T00:47:30;12.38;;;10.10;;
39956;SDS011;48483;44.640;7.494;2022-12-28T00:49:56;13.32;;;11.32;;
39956;SDS011;48483;44.640;7.494;2022-12-28T00:52:23;13.93;;;12.27;;
39956;SDS011;48483;44.640;7.494;2022-12-28T00:54:51;15.32;;;12.85;;
39956;SDS011;48483;44.640;7.494;2022-12-28T00:57:18;16.25;;;14.32;;
39956;SDS011;48483;44.640;7.494;2022-12-28T00:59:45;18.92;;;15.98;;
39956;SDS011;48483;44.640;7.494;2022-12-28T01:02:11;18.27;;;16.42;;
39956;SDS011;48483;44.640;7.494;2022-12-28T01:04:38;17.25;;;14.38;;
39956;SDS011;48483;44.640;7.494;2022-12-28T01:07:06;17.63;;;15.00;;
39956;SDS011;48483;44.640;7.494;2022-12-28T01:09:32;17.58;;;15.63;;
39956;SDS011;48483;44.640;7.494;2022-12-28T01:12:00;20.90;;;16.48;;
39956;SDS011;48483;44.640;7.494;2022-12-28T01:14:27;19.25;;;16.65;;
39956;SDS011;48483;44.640;7.494;2022-12-28T01:16:53;20.13;;;17.10;;
39956;SDS011;48483;44.640;7.494;2022-12-28T01:19:21;20.88;;;16.77;;
39956;SDS011;48483;44.640;7.494;2022-12-28T01:21:48;22.45;;;16.23;;
39956;SDS011;48483;44.640;7.494;2022-12-28T01:24:16;17.17;;;14.20;;
39956;SDS011;48483;44.640;7.494;2022-12-28T01:26:43;17.13;;;15.02;;
39956;SDS011;48483;44.640;7.494;2022-12-28T01:29:11;16.80;;;13.68;;
39956;SDS011;48483;44.640;7.494;2022-12-28T01:31:38;16.65;;;14.27;;
39956;SDS011;48483;44.640;7.494;2022-12-28T01:34:04;18.23;;;15.27;;
39956;SDS011;48483;44.640;7.494;2022-12-28T01:36:31;19.02;;;15.48;;
39956;SDS011;48483;44.640;7.494;2022-12-28T01:39:00;19.60;;;15.90;;
39956;SDS011;48483;44.640;7.494;2022-12-28T01:41:31;19.17;;;15.77;;
39956;SDS011;48483;44.640;7.494;2022-12-28T01:47:03;21.45;;;17.65;;
39956;SDS011;48483;44.640;7.494;2022-12-28T01:49:32;22.80;;;18.42;;
39956;SDS011;48483;44.640;7.494;2022-12-28T01:52:03;27.02;;;21.33;;
39956;SDS011;48483;44.640;7.494;2022-12-28T01:57:01;28.70;;;22.67;;
39956;SDS011;48483;44.640;7.494;2022-12-28T01:59:29;27.75;;;22.08;;
39956;SDS011;48483;44.640;7.494;2022-12-28T02:01:59;27.60;;;22.60;;
39956;SDS011;48483;44.640;7.494;2022-12-28T02:04:26;27.27;;;22.35;;
39956;SDS011;48483;44.640;7.494;2022-12-28T02:06:53;27.10;;;22.52;;
39956;SDS011;48483;44.640;7.494;2022-12-28T02:09:22;26.95;;;21.80;;
39956;SDS011;48483;44.640;7.494;2022-12-28T02:11:53;27.52;;;23.13;;
39956;SDS011;48483;44.640;7.494;2022-12-28T02:14:20;28.52;;;22.05;;
39956;SDS011;48483;44.640;7.494;2022-12-28T02:16:50;25.00;;;20.58;;
39956;SDS011;48483;44.640;7.494;2022-12-28T02:19:20;24.92;;;20.35;;
39956;SDS011;48483;44.640;7.494;2022-12-28T02:22:06;21.20;;;18.05;;
39956;SDS011;48483;44.640;7.494;2022-12-28T02:24:55;19.67;;;17.48;;
39956;SDS011;48483;44.640;7.494;2022-12-28T02:27:34;21.35;;;17.58;;
39956;SDS011;48483;44.640;7.494;2022-12-28T02:30:09;19.00;;;15.65;;
39956;SDS011;48483;44.640;7.494;2022-12-28T02:32:50;19.65;;;15.85;;
39956;SDS011;48483;44.640;7.494;2022-12-28T02:35:28;22.30;;;15.68;;
39956;SDS011;48483;44.640;7.494;2022-12-28T02:38:00;21.08;;;16.33;;
39956;SDS011;48483;44.640;7.494;2022-12-28T02:40:31;19.00;;;15.98;;
39956;SDS011;48483;44.640;7.494;2022-12-28T02:43:02;18.02;;;16.00;;
39956;SDS011;48483;44.640;7.494;2022-12-28T02:45:31;19.15;;;16.83;;
39956;SDS011;48483;44.640;7.494;2022-12-28T02:48:19;20.02;;;16.90;;
39956;SDS011;48483;44.640;7.494;2022-12-28T02:51:12;23.15;;;17.05;;
39956;SDS011;48483;44.640;7.494;2022-12-28T02:53:53;21.83;;;17.13;;
39956;SDS011;48483;44.640;7.494;2022-12-28T02:56:37;20.70;;;17.17;;
39956;SDS011;48483;44.640;7.494;2022-12-28T02:59:30;20.75;;;17.55;;
39956;SDS011;48483;44.640;7.494;2022-12-28T03:02:16;23.10;;;18.52;;
39956;SDS011;48483;44.640;7.494;2022-12-28T03:04:56;20.35;;;17.45;;
39956;SDS011;48483;44.640;7.494;2022-12-28T03:07:40;21.50;;;18.00;;
39956;SDS011;48483;44.640;7.494;2022-12-28T03:10:32;19.88;;;16.50;;
39956;SDS011;48483;44.640;7.494;2022-12-28T03:13:06;20.10;;;17.80;;
39956;SDS011;48483;44.640;7.494;2022-12-28T03:15:59;21.27;;;17.98;;
39956;SDS011;48483;44.640;7.494;2022-12-28T03:18:32;21.10;;;18.13;;
39956;SDS011;48483;44.640;7.494;2022-12-28T03:21:19;21.10;;;18.05;;
39956;SDS011;48483;44.640;7.494;2022-12-28T03:24:07;23.38;;;20.40;;
39956;SDS011;48483;44.640;7.494;2022-12-28T03:26:55;27.80;;;22.38;;
39956;SDS011;48483;44.640;7.494;2022-12-28T03:29:51;25.75;;;21.48;;
39956;SDS011;48483;44.640;7.494;2022-12-28T03:32:41;29.65;;;23.00;;
39956;SDS011;48483;44.640;7.494;2022-12-28T03:35:10;28.73;;;22.13;;
39956;SDS011;48483;44.640;7.494;2022-12-28T03:37:40;28.23;;;22.58;;
39956;SDS011;48483;44.640;7.494;2022-12-28T03:40:16;25.45;;;20.80;;
39956;SDS011;48483;44.640;7.494;2022-12-28T03:42:49;23.10;;;19.85;;
39956;SDS011;48483;44.640;7.494;2022-12-28T03:45:38;21.98;;;17.17;;
39956;SDS011;48483;44.640;7.494;2022-12-28T03:48:16;20.98;;;18.67;;
39956;SDS011;48483;44.640;7.494;2022-12-28T03:50:46;20.50;;;17.17;;
39956;SDS011;48483;44.640;7.494;2022-12-28T03:53:15;25.52;;;20.17;;
39956;SDS011;48483;44.640;7.494;2022-12-28T03:58:15;30.17;;;21.80;;
39956;SDS011;48483;44.640;7.494;2022-12-28T04:00:42;30.65;;;22.90;;
39956;SDS011;48483;44.640;7.494;2022-12-28T04:03:08;26.45;;;22.60;;
39956;SDS011;48483;44.640;7.494;2022-12-28T04:05:35;28.63;;;24.05;;
39956;SDS011;48483;44.640;7.494;2022-12-28T04:08:04;28.27;;;23.42;;
39956;SDS011;48483;44.640;7.494;2022-12-28T04:10:30;30.30;;;23.88;;
39956;SDS011;48483;44.640;7.494;2022-12-28T04:12:57;27.52;;;22.65;;
39956;SDS011;48483;44.640;7.494;2022-12-28T04:15:34;27.20;;;21.55;;
39956;SDS011;48483;44.640;7.494;2022-12-28T04:18:01;24.38;;;21.65;;
39956;SDS011;48483;44.640;7.494;2022-12-28T04:20:28;27.92;;;20.05;;
39956;SDS011;48483;44.640;7.494;2022-12-28T04:22:54;23.23;;;20.48;;
39956;SDS011;48483;44.640;7.494;2022-12-28T04:25:23;23.08;;;18.63;;
39956;SDS011;48483;44.640;7.494;2022-12-28T04:27:49;24.90;;;19.45;;
39956;SDS011;48483;44.640;7.494;2022-12-28T04:30:48;23.05;;;19.17;;
39956;SDS011;48483;44.640;7.494;2022-12-28T04:33:15;21.77;;;18.95;;
39956;SDS011;48483;44.640;7.494;2022-12-28T04:35:45;24.90;;;19.50;;
39956;SDS011;48483;44.640;7.494;2022-12-28T04:38:11;27.80;;;19.98;;
39956;SDS011;48483;44.640;7.494;2022-12-28T04:40:39;26.17;;;20.77;;
39956;SDS011;48483;44.640;7.494;2022-12-28T04:43:06;29.08;;;22.67;;
39956;SDS011;48483;44.640;7.494;2022-12-28T04:45:33;27.25;;;22.52;;
39956;SDS011;48483;44.640;7.494;2022-12-28T04:47:59;25.85;;;20.60;;
39956;SDS011;48483;44.640;7.494;2022-12-28T04:50:26;27.42;;;22.17;;
39956;SDS011;48483;44.640;7.494;2022-12-28T04:52:53;29.27;;;22.17;;
39956;SDS011;48483;44.640;7.494;2022-12-28T04:55:20;28.95;;;22.13;;
39956;SDS011;48483;44.640;7.494;2022-12-28T04:57:48;27.65;;;22.08;;
39956;SDS011;48483;44.640;7.494;2022-12-28T05:00:15;31.90;;;23.25;;
39956;SDS011;48483;44.640;7.494;2022-12-28T05:02:42;30.35;;;24.25;;
39956;SDS011;48483;44.640;7.494;2022-12-28T05:05:08;29.60;;;24.30;;
39956;SDS011;48483;44.640;7.494;2022-12-28T05:07:35;29.70;;;24.10;;
39956;SDS011;48483;44.640;7.494;2022-12-28T05:10:02;31.77;;;24.40;;
39956;SDS011;48483;44.640;7.494;2022-12-28T05:12:29;29.58;;;20.88;;
39956;SDS011;48483;44.640;7.494;2022-12-28T05:14:57;20.55;;;16.63;;
39956;SDS011;48483;44.640;7.494;2022-12-28T05:17:23;18.75;;;14.88;;
39956;SDS011;48483;44.640;7.494;2022-12-28T05:19:50;21.35;;;16.20;;
39956;SDS011;48483;44.640;7.494;2022-12-28T05:22:16;18.80;;;14.07;;
39956;SDS011;48483;44.640;7.494;2022-12-28T05:24:43;16.92;;;12.13;;
39956;SDS011;48483;44.640;7.494;2022-12-28T05:27:10;18.65;;;12.82;;
39956;SDS011;48483;44.640;7.494;2022-12-28T05:29:36;16.02;;;12.32;;
39956;SDS011;48483;44.640;7.494;2022-12-28T05:32:05;15.43;;;11.75;;
39956;SDS011;48483;44.640;7.494;2022-12-28T05:34:31;13.57;;;11.73;;
39956;SDS011;48483;44.640;7.494;2022-12-28T05:36:58;18.95;;;12.43;;
39956;SDS011;48483;44.640;7.494;2022-12-28T05:39:24;19.80;;;12.95;;
39956;SDS011;48483;44.640;7.494;2022-12-28T05:41:51;16.48;;;13.40;;
39956;SDS011;48483;44.640;7.494;2022-12-28T05:44:18;17.83;;;13.40;;
39956;SDS011;48483;44.640;7.494;2022-12-28T05:46:44;14.60;;;10.68;;
39956;SDS011;48483;44.640;7.494;2022-12-28T05:49:12;13.73;;;10.40;;
39956;SDS011;48483;44.640;7.494;2022-12-28T05:51:39;12.77;;;10.20;;
39956;SDS011;48483;44.640;7.494;2022-12-28T05:54:05;15.23;;;10.60;;
39956;SDS011;48483;44.640;7.494;2022-12-28T05:56:32;15.25;;;10.15;;
39956;SDS011;48483;44.640;7.494;2022-12-28T05:59:00;15.02;;;10.85;;
39956;SDS011;48483;44.640;7.494;2022-12-28T06:01:29;15.70;;;12.20;;
39956;SDS011;48483;44.640;7.494;2022-12-28T06:03:58;15.85;;;10.98;;
39956;SDS011;48483;44.640;7.494;2022-12-28T06:06:28;16.05;;;10.85;;
39956;SDS011;48483;44.640;7.494;2022-12-28T06:08:55;15.93;;;11.15;;
39956;SDS011;48483;44.640;7.494;2022-12-28T06:11:23;16.15;;;11.18;;
39956;SDS011;48483;44.640;7.494;2022-12-28T06:13:51;15.73;;;11.25;;
39956;SDS011;48483;44.640;7.494;2022-12-28T06:16:19;14.38;;;11.10;;
39956;SDS011;48483;44.640;7.494;2022-12-28T06:18:47;16.98;;;12.23;;
39956;SDS011;48483;44.640;7.494;2022-12-28T06:21:15;13.30;;;9.48;;
39956;SDS011;48483;44.640;7.494;2022-12-28T06:23:45;12.73;;;9.40;;
39956;SDS011;48483;44.640;7.494;2022-12-28T06:26:13;15.65;;;10.30;;
39956;SDS011;48483;44.640;7.494;2022-12-28T06:28:41;15.30;;;10.07;;
39956;SDS011;48483;44.640;7.494;2022-12-28T06:31:10;14.18;;;10.07;;
39956;SDS011;48483;44.640;7.494;2022-12-28T06:33:38;12.85;;;9.75;;
39956;SDS011;48483;44.640;7.494;2022-12-28T06:36:09;16.38;;;10.68;;
39956;SDS011;48483;44.640;7.494;2022-12-28T06:38:37;14.40;;;11.07;;
39956;SDS011;48483;44.640;7.494;2022-12-28T06:41:05;15.88;;;10.88;;
39956;SDS011;48483;44.640;7.494;2022-12-28T06:43:34;13.88;;;10.82;;
39956;SDS011;48483;44.640;7.494;2022-12-28T06:46:02;14.10;;;10.50;;
39956;SDS011;48483;44.640;7.494;2022-12-28T06:48:30;15.85;;;11.02;;
39956;SDS011;48483;44.640;7.494;2022-12-28T06:50:59;14.23;;;10.57;;
39956;SDS011;48483;44.640;7.494;2022-12-28T06:53:28;13.98;;;10.57;;
39956;SDS011;48483;44.640;7.494;2022-12-28T06:55:56;15.00;;;12.00;;
39956;SDS011;48483;44.640;7.494;2022-12-28T06:58:25;18.73;;;12.43;;
39956;SDS011;48483;44.640;7.494;2022-12-28T07:00:53;17.55;;;12.57;;
39956;SDS011;48483;44.640;7.494;2022-12-28T07:03:20;15.18;;;12.32;;
39956;SDS011;48483;44.640;7.494;2022-12-28T07:05:47;14.88;;;10.75;;
39956;SDS011;48483;44.640;7.494;2022-12-28T07:08:14;13.20;;;10.07;;
39956;SDS011;48483;44.640;7.494;2022-12-28T07:10:41;13.98;;;9.90;;
39956;SDS011;48483;44.640;7.494;2022-12-28T07:13:07;12.70;;;9.93;;
39956;SDS011;48483;44.640;7.494;2022-12-28T07:15:35;14.60;;;10.05;;
39956;SDS011;48483;44.640;7.494;2022-12-28T07:18:02;15.00;;;10.60;;
39956;SDS011;48483;44.640;7.494;2022-12-28T07:20:29;16.77;;;12.02;;
39956;SDS011;48483;44.640;7.494;2022-12-28T07:22:55;18.70;;;13.50;;
39956;SDS011;48483;44.640;7.494;2022-12-28T07:25:22;17.02;;;13.88;;
39956;SDS011;48483;44.640;7.494;2022-12-28T07:27:49;18.10;;;13.57;;
39956;SDS011;48483;44.640;7.494;2022-12-28T07:30:15;18.02;;;14.18;;
39956;SDS011;48483;44.640;7.494;2022-12-28T07:32:43;20.55;;;15.07;;
39956;SDS011;48483;44.640;7.494;2022-12-28T07:35:10;21.20;;;16.73;;
39956;SDS011;48483;44.640;7.494;2022-12-28T07:37:37;17.27;;;14.30;;
39956;SDS011;48483;44.640;7.494;2022-12-28T07:40:04;20.73;;;13.98;;
39956;SDS011;48483;44.640;7.494;2022-12-28T07:42:31;18.73;;;13.77;;
39956;SDS011;48483;44.640;7.494;2022-12-28T07:44:59;22.42;;;15.73;;
39956;SDS011;48483;44.640;7.494;2022-12-28T07:47:25;21.27;;;14.60;;
39956;SDS011;48483;44.640;7.494;2022-12-28T07:49:53;18.40;;;14.93;;
39956;SDS011;48483;44.640;7.494;2022-12-28T07:52:20;18.58;;;13.68;;
39956;SDS011;48483;44.640;7.494;2022-12-28T07:54:46;17.98;;;13.48;;
39956;SDS011;48483;44.640;7.494;2022-12-28T07:57:13;18.70;;;12.93;;
39956;SDS011;48483;44.640;7.494;2022-12-28T07:59:40;18.27;;;13.50;;
39956;SDS011;48483;44.640;7.494;2022-12-28T08:02:07;19.38;;;14.23;;
39956;SDS011;48483;44.640;7.494;2022-12-28T08:04:35;22.92;;;15.93;;
39956;SDS011;48483;44.640;7.494;2022-12-28T08:07:03;25.17;;;15.32;;
39956;SDS011;48483;44.640;7.494;2022-12-28T08:09:30;21.75;;;15.48;;
39956;SDS011;48483;44.640;7.494;2022-12-28T08:11:57;19.98;;;15.77;;
39956;SDS011;48483;44.640;7.494;2022-12-28T08:14:23;29.38;;;18.48;;
39956;SDS011;48483;44.640;7.494;2022-12-28T08:16:50;22.50;;;17.17;;
39956;SDS011;48483;44.640;7.494;2022-12-28T08:19:17;21.67;;;17.65;;
39956;SDS011;48483;44.640;7.494;2022-12-28T08:21:44;22.40;;;16.95;;
39956;SDS011;48483;44.640;7.494;2022-12-28T08:24:13;20.10;;;17.20;;
39956;SDS011;48483;44.640;7.494;2022-12-28T08:26:41;22.33;;;16.15;;
39956;SDS011;48483;44.640;7.494;2022-12-28T08:29:10;22.95;;;16.63;;
39956;SDS011;48483;44.640;7.494;2022-12-28T08:31:38;20.75;;;15.65;;
39956;SDS011;48483;44.640;7.494;2022-12-28T08:34:06;24.35;;;16.60;;
39956;SDS011;48483;44.640;7.494;2022-12-28T08:36:35;24.50;;;17.98;;
39956;SDS011;48483;44.640;7.494;2022-12-28T08:39:02;21.35;;;17.52;;
39956;SDS011;48483;44.640;7.494;2022-12-28T08:41:30;19.77;;;16.77;;
39956;SDS011;48483;44.640;7.494;2022-12-28T08:43:57;25.77;;;19.15;;
39956;SDS011;48483;44.640;7.494;2022-12-28T08:46:25;22.70;;;17.70;;
39956;SDS011;48483;44.640;7.494;2022-12-28T08:48:54;24.70;;;19.70;;
39956;SDS011;48483;44.640;7.494;2022-12-28T08:51:23;23.65;;;19.45;;
39956;SDS011;48483;44.640;7.494;2022-12-28T08:53:50;27.77;;;20.40;;
39956;SDS011;48483;44.640;7.494;2022-12-28T08:56:18;26.52;;;19.35;;
39956;SDS011;48483;44.640;7.494;2022-12-28T08:58:48;26.98;;;17.90;;
39956;SDS011;48483;44.640;7.494;2022-12-28T09:01:17;26.20;;;20.63;;
39956;SDS011;48483;44.640;7.494;2022-12-28T09:03:46;32.30;;;23.13;;
39956;SDS011;48483;44.640;7.494;2022-12-28T09:06:14;34.17;;;23.00;;
39956;SDS011;48483;44.640;7.494;2022-12-28T09:08:42;35.22;;;25.10;;
39956;SDS011;48483;44.640;7.494;2022-12-28T09:11:09;37.30;;;25.73;;
39956;SDS011;48483;44.640;7.494;2022-12-28T09:13:37;39.30;;;26.70;;
39956;SDS011;48483;44.640;7.494;2022-12-28T09:16:07;36.20;;;26.00;;
39956;SDS011;48483;44.640;7.494;2022-12-28T09:18:35;30.15;;;21.23;;
39956;SDS011;48483;44.640;7.494;2022-12-28T09:21:05;38.38;;;24.83;;
39956;SDS011;48483;44.640;7.494;2022-12-28T09:23:33;35.22;;;24.08;;
39956;SDS011;48483;44.640;7.494;2022-12-28T09:26:05;31.83;;;24.58;;
39956;SDS011;48483;44.640;7.494;2022-12-28T09:28:32;27.80;;;21.90;;
39956;SDS011;48483;44.640;7.494;2022-12-28T09:31:00;30.83;;;22.75;;
39956;SDS011;48483;44.640;7.494;2022-12-28T09:33:29;32.95;;;24.08;;
39956;SDS011;48483;44.640;7.494;2022-12-28T09:36:14;31.40;;;23.73;;
39956;SDS011;48483;44.640;7.494;2022-12-28T09:38:41;34.47;;;23.70;;
39956;SDS011;48483;44.640;7.494;2022-12-28T09:41:09;28.77;;;23.20;;
39956;SDS011;48483;44.640;7.494;2022-12-28T09:43:38;30.20;;;23.60;;
39956;SDS011;48483;44.640;7.494;2022-12-28T09:46:07;31.33;;;23.63;;
39956;SDS011;48483;44.640;7.494;2022-12-28T09:48:36;28.75;;;23.77;;
39956;SDS011;48483;44.640;7.494;2022-12-28T09:51:05;36.08;;;23.63;;
39956;SDS011;48483;44.640;7.494;2022-12-28T09:53:33;31.35;;;23.45;;
39956;SDS011;48483;44.640;7.494;2022-12-28T09:56:01;31.48;;;25.25;;
39956;SDS011;48483;44.640;7.494;2022-12-28T09:58:31;31.27;;;22.80;;
39956;SDS011;48483;44.640;7.494;2022-12-28T10:01:01;33.60;;;24.42;;
39956;SDS011;48483;44.640;7.494;2022-12-28T10:03:31;33.33;;;23.02;;
39956;SDS011;48483;44.640;7.494;2022-12-28T10:06:02;30.55;;;21.80;;
39956;SDS011;48483;44.640;7.494;2022-12-28T10:08:35;28.52;;;22.02;;
39956;SDS011;48483;44.640;7.494;2022-12-28T10:11:05;29.08;;;20.95;;
39956;SDS011;48483;44.640;7.494;2022-12-28T10:13:33;28.10;;;21.05;;
39956;SDS011;48483;44.640;7.494;2022-12-28T10:16:03;27.27;;;20.40;;
39956;SDS011;48483;44.640;7.494;2022-12-28T10:18:30;25.75;;;20.70;;
39956;SDS011;48483;44.640;7.494;2022-12-28T10:20:58;28.25;;;20.80;;
39956;SDS011;48483;44.640;7.494;2022-12-28T10:23:27;26.77;;;19.75;;
39956;SDS011;48483;44.640;7.494;2022-12-28T10:25:56;27.95;;;19.40;;
39956;SDS011;48483;44.640;7.494;2022-12-28T10:28:27;24.90;;;19.35;;
39956;SDS011;48483;44.640;7.494;2022-12-28T10:31:02;26.77;;;20.05;;
39956;SDS011;48483;44.640;7.494;2022-12-28T10:33:30;25.35;;;19.45;;
39956;SDS011;48483;44.640;7.494;2022-12-28T10:35:57;25.48;;;18.92;;
39956;SDS011;48483;44.640;7.494;2022-12-28T10:38:27;23.40;;;17.45;;
39956;SDS011;48483;44.640;7.494;2022-12-28T10:40:59;23.02;;;18.15;;
39956;SDS011;48483;44.640;7.494;2022-12-28T10:43:29;25.88;;;19.15;;
39956;SDS011;48483;44.640;7.494;2022-12-28T10:45:59;26.08;;;20.40;;
39956;SDS011;48483;44.640;7.494;2022-12-28T10:48:29;27.02;;;20.77;;
39956;SDS011;48483;44.640;7.494;2022-12-28T10:50:59;22.20;;;16.15;;
39956;SDS011;48483;44.640;7.494;2022-12-28T10:53:40;26.08;;;20.15;;
39956;SDS011;48483;44.640;7.494;2022-12-28T10:56:19;28.60;;;19.70;;
39956;SDS011;48483;44.640;7.494;2022-12-28T10:58:49;24.75;;;19.40;;
39956;SDS011;48483;44.640;7.494;2022-12-28T11:01:18;29.73;;;21.25;;
39956;SDS011;48483;44.640;7.494;2022-12-28T11:03:58;25.45;;;19.02;;
39956;SDS011;48483;44.640;7.494;2022-12-28T11:06:27;25.65;;;19.88;;
39956;SDS011;48483;44.640;7.494;2022-12-28T11:09:01;25.77;;;19.10;;
39956;SDS011;48483;44.640;7.494;2022-12-28T11:11:40;26.67;;;20.10;;
39956;SDS011;48483;44.640;7.494;2022-12-28T11:14:12;26.30;;;20.23;;
39956;SDS011;48483;44.640;7.494;2022-12-28T11:16:42;26.65;;;19.48;;
39956;SDS011;48483;44.640;7.494;2022-12-28T11:19:09;23.77;;;19.17;;
39956;SDS011;48483;44.640;7.494;2022-12-28T11:21:37;26.15;;;19.25;;
39956;SDS011;48483;44.640;7.494;2022-12-28T11:24:09;24.95;;;19.88;;
39956;SDS011;48483;44.640;7.494;2022-12-28T11:26:41;27.85;;;20.05;;
39956;SDS011;48483;44.640;7.494;2022-12-28T11:29:09;27.25;;;20.17;;
39956;SDS011;48483;44.640;7.494;2022-12-28T11:31:39;26.35;;;20.55;;
39956;SDS011;48483;44.640;7.494;2022-12-28T11:34:13;29.67;;;20.65;;
39956;SDS011;48483;44.640;7.494;2022-12-28T11:36:43;33.47;;;21.75;;
39956;SDS011;48483;44.640;7.494;2022-12-28T11:39:30;29.20;;;20.60;;
39956;SDS011;48483;44.640;7.494;2022-12-28T11:42:06;29.05;;;23.75;;
39956;SDS011;48483;44.640;7.494;2022-12-28T11:44:50;33.30;;;22.08;;
39956;SDS011;48483;44.640;7.494;2022-12-28T11:47:24;27.67;;;21.65;;
39956;SDS011;48483;44.640;7.494;2022-12-28T11:52:58;29.58;;;22.00;;
39956;SDS011;48483;44.640;7.494;2022-12-28T11:55:34;28.00;;;20.40;;
39956;SDS011;48483;44.640;7.494;2022-12-28T12:01:42;28.00;;;21.48;;
39956;SDS011;48483;44.640;7.494;2022-12-28T12:04:26;33.17;;;22.02;;
39956;SDS011;48483;44.640;7.494;2022-12-28T12:13:00;31.67;;;22.30;;
39956;SDS011;48483;44.640;7.494;2022-12-28T12:15:55;31.77;;;23.10;;
39956;SDS011;48483;44.640;7.494;2022-12-28T12:18:26;28.70;;;22.52;;
39956;SDS011;48483;44.640;7.494;2022-12-28T12:20:56;28.50;;;22.83;;
39956;SDS011;48483;44.640;7.494;2022-12-28T12:23:27;35.10;;;23.70;;
39956;SDS011;48483;44.640;7.494;2022-12-28T12:26:00;38.28;;;24.67;;
39956;SDS011;48483;44.640;7.494;2022-12-28T12:28:41;32.38;;;23.17;;
39956;SDS011;48483;44.640;7.494;2022-12-28T12:31:13;30.33;;;22.38;;
39956;SDS011;48483;44.640;7.494;2022-12-28T12:33:43;29.17;;;21.60;;
39956;SDS011;48483;44.640;7.494;2022-12-28T12:36:19;27.88;;;22.25;;
39956;SDS011;48483;44.640;7.494;2022-12-28T12:39:05;31.52;;;23.08;;
39956;SDS011;48483;44.640;7.494;2022-12-28T12:41:46;29.80;;;23.63;;
39956;SDS011;48483;44.640;7.494;2022-12-28T12:44:25;32.22;;;23.13;;
39956;SDS011;48483;44.640;7.494;2022-12-28T12:47:09;29.83;;;22.23;;
39956;SDS011;48483;44.640;7.494;2022-12-28T12:52:45;28.73;;;21.50;;
39956;SDS011;48483;44.640;7.494;2022-12-28T12:55:26;27.73;;;21.45;;
39956;SDS011;48483;44.640;7.494;2022-12-28T12:58:03;27.98;;;20.67;;
39956;SDS011;48483;44.640;7.494;2022-12-28T13:00:39;27.77;;;21.50;;
39956;SDS011;48483;44.640;7.494;2022-12-28T13:03:16;30.90;;;21.80;;
39956;SDS011;48483;44.640;7.494;2022-12-28T13:05:51;31.52;;;22.63;;
39956;SDS011;48483;44.640;7.494;2022-12-28T13:08:20;27.75;;;21.15;;
39956;SDS011;48483;44.640;7.494;2022-12-28T13:10:50;29.60;;;21.83;;
39956;SDS011;48483;44.640;7.494;2022-12-28T13:13:19;29.92;;;22.95;;
39956;SDS011;48483;44.640;7.494;2022-12-28T13:15:53;25.15;;;19.73;;
39956;SDS011;48483;44.640;7.494;2022-12-28T13:18:24;30.02;;;20.00;;
39956;SDS011;48483;44.640;7.494;2022-12-28T13:20:52;28.23;;;20.45;;
39956;SDS011;48483;44.640;7.494;2022-12-28T13:23:20;29.00;;;21.08;;
39956;SDS011;48483;44.640;7.494;2022-12-28T13:25:48;28.70;;;19.70;;
39956;SDS011;48483;44.640;7.494;2022-12-28T13:28:17;33.42;;;20.50;;
39956;SDS011;48483;44.640;7.494;2022-12-28T13:30:55;27.58;;;19.77;;
39956;SDS011;48483;44.640;7.494;2022-12-28T13:33:24;28.45;;;19.95;;
39956;SDS011;48483;44.640;7.494;2022-12-28T13:36:03;32.28;;;20.67;;
39956;SDS011;48483;44.640;7.494;2022-12-28T13:38:35;30.13;;;19.73;;
39956;SDS011;48483;44.640;7.494;2022-12-28T13:41:04;27.08;;;18.63;;
39956;SDS011;48483;44.640;7.494;2022-12-28T13:44:01;24.80;;;18.20;;
39956;SDS011;48483;44.640;7.494;2022-12-28T13:46:42;26.42;;;18.98;;
39956;SDS011;48483;44.640;7.494;2022-12-28T13:49:15;24.55;;;19.83;;
39956;SDS011;48483;44.640;7.494;2022-12-28T13:51:43;29.38;;;21.83;;
39956;SDS011;48483;44.640;7.494;2022-12-28T13:54:10;29.17;;;19.60;;
39956;SDS011;48483;44.640;7.494;2022-12-28T13:56:38;26.13;;;19.08;;
39956;SDS011;48483;44.640;7.494;2022-12-28T13:59:08;29.85;;;20.92;;
39956;SDS011;48483;44.640;7.494;2022-12-28T14:01:39;29.77;;;19.27;;
39956;SDS011;48483;44.640;7.494;2022-12-28T14:04:09;26.70;;;19.50;;
39956;SDS011;48483;44.640;7.494;2022-12-28T14:06:40;25.95;;;19.77;;
39956;SDS011;48483;44.640;7.494;2022-12-28T14:09:08;30.10;;;21.20;;
39956;SDS011;48483;44.640;7.494;2022-12-28T14:11:36;26.80;;;20.05;;
39956;SDS011;48483;44.640;7.494;2022-12-28T14:14:04;31.15;;;19.23;;
39956;SDS011;48483;44.640;7.494;2022-12-28T14:16:31;30.80;;;21.15;;
39956;SDS011;48483;44.640;7.494;2022-12-28T14:19:00;26.35;;;19.77;;
39956;SDS011;48483;44.640;7.494;2022-12-28T14:21:32;27.58;;;19.20;;
39956;SDS011;48483;44.640;7.494;2022-12-28T14:24:04;28.08;;;20.17;;
39956;SDS011;48483;44.640;7.494;2022-12-28T14:26:33;23.70;;;17.58;;
39956;SDS011;48483;44.640;7.494;2022-12-28T14:29:01;32.72;;;20.88;;
39956;SDS011;48483;44.640;7.494;2022-12-28T14:31:35;30.25;;;18.85;;
39956;SDS011;48483;44.640;7.494;2022-12-28T14:34:04;24.92;;;18.83;;
39956;SDS011;48483;44.640;7.494;2022-12-28T14:36:32;24.65;;;18.00;;
39956;SDS011;48483;44.640;7.494;2022-12-28T14:39:03;27.83;;;18.77;;
39956;SDS011;48483;44.640;7.494;2022-12-28T14:41:32;31.50;;;17.90;;
39956;SDS011;48483;44.640;7.494;2022-12-28T14:44:01;25.08;;;19.08;;
39956;SDS011;48483;44.640;7.494;2022-12-28T14:46:31;25.98;;;18.95;;
39956;SDS011;48483;44.640;7.494;2022-12-28T14:49:04;26.08;;;19.42;;
39956;SDS011;48483;44.640;7.494;2022-12-28T14:51:55;27.42;;;18.77;;
39956;SDS011;48483;44.640;7.494;2022-12-28T14:54:42;23.65;;;18.23;;
39956;SDS011;48483;44.640;7.494;2022-12-28T14:57:14;30.10;;;20.55;;
39956;SDS011;48483;44.640;7.494;2022-12-28T14:59:45;26.92;;;19.52;;
39956;SDS011;48483;44.640;7.494;2022-12-28T15:02:30;24.60;;;17.70;;
39956;SDS011;48483;44.640;7.494;2022-12-28T15:08:05;28.08;;;18.85;;
39956;SDS011;48483;44.640;7.494;2022-12-28T15:10:34;28.08;;;19.13;;